Toncontín International Airport
MHTG : rendu visible

Aérodrome :











RETROUVEZ-NOUS SUR...

 
LOGIN :

S'inscrire | Disclaimer

   EN    FR    IT 

 









Légende :    VFR   VFR Marginal   IFR   IFR Intensif   IFR Très Intensif
Visi : 
Plafond : 
>= 8 km
>= 3000ft
5 à 8 km
1000 à 3000 ft
1500m à 5 km
500 à 1000 ft
800 à 1500m
200 à 500 ft
< 800m
< 200 ft
Symboles :   Orages  Brouillard  Fortes neiges  Fortes précipitations  Vent > 20 kt






- Altitude de l'aérodrome : 3294 ft
- Code IATA : TGU


MHTG - Toncontín International

METAR N/A
TAF TAF MHTG
Valide du 27 à 12h jusqu'au 28 à 12h UTC


271035Z 2712/2812 35005KT 5000 -RA FEW008 BKN024 OVC080 TX30/2721Z TN20/2812Z
BECMG 2714/2716 07004KT 9999 NSW FEW028 BKN080
BECMG 2720/2722 8000 TSVCSH SCT020CB SCT080
BECMG 2802/2804 5000 -RA SCT025TCU BKN080
BECMG 2807/2809 8000 VCSH
FIR MHTG / Amérique du Nord



MET'MAP, la Météo Aéronautique d'un coup d'oeil ! - Copyright ORBIFLY Décembre 2007 - Disclaimer

ORBIFLY MET'MAP TEAM :

Programmation & Développement : Alexandra Zaïnal
Sur une idée originale de : Baudouin d'Aumeries
Assistance à la programmation : Marc-Olivier Méhu
Soutien technique & logistique : Manuel Goepfert

Contact : metmap@orbifly.com




SOURCES & CREDITS :

   NOAA       Earth
Advisory